createdAt,value
2016-09-30T00:00:29.978Z,1000.99
2016-09-30T00:01:30.009Z,1000.96
2016-09-30T00:02:30.027Z,1000.99
2016-09-30T00:03:30.049Z,1001
2016-09-30T00:04:30.172Z,1000.96
2016-09-30T00:05:30.098Z,1000.95
2016-09-30T00:06:30.123Z,1001
2016-09-30T00:07:30.149Z,1000.92
2016-09-30T00:08:30.177Z,1000.93
2016-09-30T00:09:30.194Z,1000.96
2016-09-30T00:10:30.216Z,1000.97
2016-09-30T00:11:30.240Z,1000.96
2016-09-30T00:12:30.267Z,1000.99
2016-09-30T00:13:30.291Z,1000.97
2016-09-30T00:14:30.313Z,1000.91
2016-09-30T00:15:30.336Z,1000.94
2016-09-30T00:16:30.361Z,1000.95
2016-09-30T00:17:30.383Z,1000.97
2016-09-30T00:18:30.407Z,1000.97
2016-09-30T00:19:30.433Z,1000.97
2016-09-30T00:20:30.457Z,1000.98
2016-09-30T00:21:30.481Z,1001.02
2016-09-30T00:22:30.508Z,1000.96
2016-09-30T00:23:30.528Z,1001.02
2016-09-30T00:24:30.555Z,1001.04
2016-09-30T00:25:30.580Z,1001.02
2016-09-30T00:26:30.599Z,1001.02
2016-09-30T00:27:30.623Z,1001.06
2016-09-30T00:28:30.650Z,1001.03
2016-09-30T00:29:30.674Z,1001.06
2016-09-30T00:30:30.694Z,1001.04
2016-09-30T00:31:30.721Z,1001.13
2016-09-30T00:32:30.744Z,1001.07
2016-09-30T00:33:30.774Z,1001.03
2016-09-30T00:34:30.792Z,1001.1
2016-09-30T00:35:30.815Z,1001.13
2016-09-30T00:36:30.840Z,1001.09
2016-09-30T00:37:30.864Z,1001.13
2016-09-30T00:38:30.885Z,1001.14
2016-09-30T00:39:30.916Z,1001.14
2016-09-30T00:40:30.935Z,1001.09
2016-09-30T00:41:30.961Z,1001.13
2016-09-30T00:42:30.981Z,1001.12
2016-09-30T00:43:31.005Z,1001.13
2016-09-30T00:44:31.031Z,1001.12
2016-09-30T00:45:31.053Z,1001.08
2016-09-30T00:46:31.080Z,1001.12
2016-09-30T00:47:31.101Z,1001.1
2016-09-30T00:48:31.125Z,1001.09
2016-09-30T00:49:31.148Z,1001.11
2016-09-30T00:50:31.188Z,1001.08
2016-09-30T00:51:31.196Z,1001.1
2016-09-30T00:52:31.221Z,1001.08
2016-09-30T00:53:31.242Z,1001.03
2016-09-30T00:54:31.268Z,1001.04
2016-09-30T00:55:31.290Z,1001.05
2016-09-30T00:56:31.311Z,1001.01
2016-09-30T00:57:31.338Z,1001.03
2016-09-30T00:58:31.360Z,1001.01
2016-09-30T00:59:31.393Z,1001.04
2016-09-30T01:00:31.410Z,1001.06
2016-09-30T01:01:31.436Z,1001.07
2016-09-30T01:02:31.461Z,1001.05
2016-09-30T01:03:31.482Z,1001.07
2016-09-30T01:04:31.501Z,1001.09
2016-09-30T01:05:31.529Z,1001.12
2016-09-30T01:06:31.547Z,1001.11
2016-09-30T01:07:31.570Z,1001.11
2016-09-30T01:08:31.596Z,1001.1
2016-09-30T01:09:31.622Z,1001.09
2016-09-30T01:10:31.642Z,1001.12
2016-09-30T01:11:31.669Z,1001.09
2016-09-30T01:12:31.690Z,1001.1
2016-09-30T01:13:31.713Z,1001.04
2016-09-30T01:14:31.735Z,1001.05
2016-09-30T01:15:31.759Z,1001.07
2016-09-30T01:16:31.788Z,1001.08
2016-09-30T01:17:31.807Z,1001.08
2016-09-30T01:18:31.836Z,1001.1
2016-09-30T01:19:31.851Z,1001.05
2016-09-30T01:20:31.882Z,1001.04
2016-09-30T01:21:31.905Z,1001.05
2016-09-30T01:22:31.923Z,1001.05
2016-09-30T01:23:31.951Z,1001.07
2016-09-30T01:24:31.974Z,1001.03
2016-09-30T01:25:31.996Z,1001.03
2016-09-30T01:26:32.019Z,1001.04
2016-09-30T01:27:32.044Z,1001.03
2016-09-30T01:28:32.068Z,1001.01
2016-09-30T01:29:32.092Z,1001.02
2016-09-30T01:30:32.113Z,1000.99
2016-09-30T01:31:32.138Z,1000.95
2016-09-30T01:32:32.157Z,1000.94
2016-09-30T01:33:32.183Z,1000.94
2016-09-30T01:34:32.210Z,1000.9
2016-09-30T01:35:32.228Z,1000.89
2016-09-30T01:36:32.254Z,1000.9
2016-09-30T01:37:32.278Z,1000.89
2016-09-30T01:38:32.298Z,1000.88
2016-09-30T01:39:32.328Z,1000.91
2016-09-30T01:40:32.344Z,1000.93
2016-09-30T01:41:32.372Z,1000.91
2016-09-30T01:42:32.396Z,1000.87
2016-09-30T01:43:32.416Z,1000.88
2016-09-30T01:44:32.443Z,1000.89
2016-09-30T01:45:32.465Z,1000.88
2016-09-30T01:46:32.487Z,1000.86
2016-09-30T01:47:32.513Z,1000.88
2016-09-30T01:48:32.533Z,1000.92
2016-09-30T01:49:32.557Z,1000.94
2016-09-30T01:50:32.582Z,1000.95
2016-09-30T01:51:32.607Z,1001.02
2016-09-30T01:52:32.634Z,1001.18
2016-09-30T01:53:32.658Z,1001.24
2016-09-30T01:54:32.674Z,1001.23
2016-09-30T01:55:32.703Z,1001.21
2016-09-30T01:56:32.725Z,1001.24
2016-09-30T01:57:32.747Z,1001.31
2016-09-30T01:58:32.769Z,1001.44
2016-09-30T01:59:32.795Z,1001.5
2016-09-30T02:00:32.815Z,1001.49
2016-09-30T02:01:32.845Z,1001.5
2016-09-30T02:02:32.864Z,1001.48
2016-09-30T02:03:32.887Z,1001.52
2016-09-30T02:04:32.913Z,1001.46
2016-09-30T02:05:32.983Z,1001.5
2016-09-30T02:06:32.987Z,1001.54
2016-09-30T02:07:32.979Z,1001.64
2016-09-30T02:08:33.006Z,1001.69
2016-09-30T02:09:33.027Z,1001.68
2016-09-30T02:10:33.049Z,1001.65
2016-09-30T02:11:33.073Z,1001.63
2016-09-30T02:12:33.097Z,1001.64
2016-09-30T02:13:33.126Z,1001.63
2016-09-30T02:14:33.147Z,1001.62
2016-09-30T02:15:33.172Z,1001.61
2016-09-30T02:16:33.194Z,1001.62
2016-09-30T02:17:33.217Z,1001.67
2016-09-30T02:18:33.242Z,1001.63
2016-09-30T02:19:33.258Z,1001.66
2016-09-30T02:20:33.283Z,1001.66
2016-09-30T02:21:33.307Z,1001.65
2016-09-30T02:22:33.336Z,1001.66
2016-09-30T02:23:33.356Z,1001.65
2016-09-30T02:24:33.379Z,1001.66
2016-09-30T02:25:33.399Z,1001.63
2016-09-30T02:26:33.426Z,1001.59
2016-09-30T02:27:33.446Z,1001.57
2016-09-30T02:28:33.474Z,1001.59
2016-09-30T02:29:33.498Z,1001.54
2016-09-30T02:30:33.548Z,1001.58
2016-09-30T02:31:33.542Z,1001.59
2016-09-30T02:32:33.564Z,1001.61
2016-09-30T02:33:33.590Z,1001.63
2016-09-30T02:34:33.612Z,1001.62
2016-09-30T02:35:33.637Z,1001.61
2016-09-30T02:36:33.667Z,1001.58
2016-09-30T02:37:33.686Z,1001.6
2016-09-30T02:38:33.707Z,1001.61
2016-09-30T02:39:33.730Z,1001.59
2016-09-30T02:40:33.753Z,1001.53
2016-09-30T02:41:33.778Z,1001.53
2016-09-30T02:42:33.797Z,1001.52
2016-09-30T02:43:33.822Z,1001.53
2016-09-30T02:44:33.844Z,1001.54
2016-09-30T02:45:33.867Z,1001.58
2016-09-30T02:46:33.891Z,1001.58
2016-09-30T02:47:33.916Z,1001.64
2016-09-30T02:48:33.941Z,1001.68
2016-09-30T02:49:33.962Z,1001.67
2016-09-30T02:50:33.989Z,1001.71
2016-09-30T02:51:34.008Z,1001.7
2016-09-30T02:52:34.035Z,1001.68
2016-09-30T02:53:34.074Z,1001.67
2016-09-30T02:54:34.082Z,1001.69
2016-09-30T02:55:34.101Z,1001.68
2016-09-30T02:56:34.129Z,1001.61
2016-09-30T02:57:34.148Z,1001.64
2016-09-30T02:58:34.172Z,1001.59
2016-09-30T02:59:34.202Z,1001.55
2016-09-30T03:00:34.218Z,1001.56
2016-09-30T03:01:34.241Z,1001.52
2016-09-30T03:02:34.268Z,1001.44
2016-09-30T03:03:34.288Z,1001.45
2016-09-30T03:04:34.315Z,1001.47
2016-09-30T03:05:34.444Z,1001.5
2016-09-30T03:06:34.359Z,1001.41
2016-09-30T03:07:34.385Z,1001.38
2016-09-30T03:08:34.406Z,1001.37
2016-09-30T03:09:34.431Z,1001.41
2016-09-30T03:10:34.449Z,1001.39
2016-09-30T03:11:34.478Z,1001.41
2016-09-30T03:12:34.501Z,1001.44
2016-09-30T03:13:34.525Z,1001.45
2016-09-30T03:14:34.544Z,1001.49
2016-09-30T03:15:34.571Z,1001.49
2016-09-30T03:16:34.592Z,1001.51
2016-09-30T03:17:34.618Z,1001.5
2016-09-30T03:18:34.643Z,1001.49
2016-09-30T03:19:34.664Z,1001.51
2016-09-30T03:20:34.684Z,1001.51
2016-09-30T03:21:34.711Z,1001.49
2016-09-30T03:22:34.732Z,1001.55
2016-09-30T03:23:34.755Z,1001.57
2016-09-30T03:24:34.778Z,1001.56
2016-09-30T03:25:34.799Z,1001.58
2016-09-30T03:26:34.828Z,1001.62
2016-09-30T03:27:34.849Z,1001.6
2016-09-30T03:28:34.872Z,1001.62
2016-09-30T03:29:34.891Z,1001.59
2016-09-30T03:30:34.915Z,1001.59
2016-09-30T03:31:34.944Z,1001.6
2016-09-30T03:32:34.964Z,1001.64
2016-09-30T03:33:34.984Z,1001.65
2016-09-30T03:34:35.010Z,1001.64
2016-09-30T03:35:35.035Z,1001.65
2016-09-30T03:36:35.059Z,1001.67
2016-09-30T03:37:35.082Z,1001.68
2016-09-30T03:38:35.100Z,1001.69
2016-09-30T03:39:35.128Z,1001.71
2016-09-30T03:40:35.145Z,1001.68
2016-09-30T03:41:35.172Z,1001.69
2016-09-30T03:42:35.193Z,1001.67
2016-09-30T03:43:35.219Z,1001.66
2016-09-30T03:44:35.241Z,1001.63
2016-09-30T03:45:35.264Z,1001.64
2016-09-30T03:46:35.290Z,1001.68
2016-09-30T03:47:35.312Z,1001.71
2016-09-30T03:48:35.331Z,1001.69
2016-09-30T03:49:35.357Z,1001.69
2016-09-30T03:50:35.377Z,1001.75
2016-09-30T03:51:35.399Z,1001.71
2016-09-30T03:52:35.424Z,1001.72
2016-09-30T03:53:35.450Z,1001.72
2016-09-30T03:54:35.472Z,1001.75
2016-09-30T03:55:35.497Z,1001.73
2016-09-30T03:56:35.519Z,1001.73
2016-09-30T03:57:35.543Z,1001.75
2016-09-30T03:58:35.563Z,1001.75
2016-09-30T03:59:35.663Z,1001.78
2016-09-30T04:00:35.613Z,1001.75
2016-09-30T04:01:35.649Z,1001.79
2016-09-30T04:02:35.655Z,1001.71
2016-09-30T04:03:35.686Z,1001.71
2016-09-30T04:04:35.704Z,1001.69
2016-09-30T04:05:35.726Z,1001.69
2016-09-30T04:06:35.746Z,1001.68
2016-09-30T04:07:35.773Z,1001.73
2016-09-30T04:08:35.793Z,1001.72
2016-09-30T04:09:35.818Z,1001.71
2016-09-30T04:10:35.839Z,1001.7
2016-09-30T04:11:35.864Z,1001.72
2016-09-30T04:12:35.893Z,1001.76
2016-09-30T04:13:35.914Z,1001.71
2016-09-30T04:14:35.938Z,1001.76
2016-09-30T04:15:35.958Z,1001.76
2016-09-30T04:16:35.980Z,1001.83
2016-09-30T04:17:36.001Z,1001.82
2016-09-30T04:18:36.028Z,1001.82
2016-09-30T04:19:36.054Z,1001.82
2016-09-30T04:20:36.075Z,1001.86
2016-09-30T04:21:36.095Z,1001.83
2016-09-30T04:22:36.124Z,1001.88
2016-09-30T04:23:36.148Z,1001.91
2016-09-30T04:24:36.166Z,1001.94
2016-09-30T04:25:36.194Z,1001.91
2016-09-30T04:26:36.213Z,1001.93
2016-09-30T04:27:36.234Z,1001.91
2016-09-30T04:28:36.260Z,1001.91
2016-09-30T04:29:36.276Z,1001.94
2016-09-30T04:30:36.304Z,1001.91
2016-09-30T04:31:36.325Z,1001.89
2016-09-30T04:32:36.351Z,1001.89
2016-09-30T04:33:36.372Z,1001.92
2016-09-30T04:34:36.392Z,1001.97
2016-09-30T04:35:36.416Z,1002.01
2016-09-30T04:36:36.444Z,1002
2016-09-30T04:37:36.462Z,1002.02
2016-09-30T04:38:36.488Z,1002.02
2016-09-30T04:39:36.513Z,1001.96
2016-09-30T04:40:36.541Z,1001.99
2016-09-30T04:41:36.585Z,1002.04
2016-09-30T04:42:36.579Z,1002.06
2016-09-30T04:43:36.605Z,1002.09
2016-09-30T04:44:36.623Z,1002.07
2016-09-30T04:45:36.650Z,1002.07
2016-09-30T04:46:36.668Z,1002.07
2016-09-30T04:47:36.697Z,1002.07
2016-09-30T04:48:36.719Z,1002.06
2016-09-30T04:49:36.743Z,1002.02
2016-09-30T04:50:36.760Z,1002.01
2016-09-30T04:51:36.785Z,1001.98
2016-09-30T04:52:36.807Z,1002
2016-09-30T04:53:36.829Z,1001.98
2016-09-30T04:54:36.855Z,1002.06
2016-09-30T04:55:36.877Z,1002.07
2016-09-30T04:56:36.904Z,1002.14
2016-09-30T04:57:36.921Z,1002.16
2016-09-30T04:58:36.945Z,1002.19
2016-09-30T04:59:36.972Z,1002.26
2016-09-30T05:00:36.992Z,1002.26
2016-09-30T05:01:37.024Z,1002.28
2016-09-30T05:02:37.135Z,1002.26
2016-09-30T05:03:37.061Z,1002.23
2016-09-30T05:04:37.086Z,1002.17
2016-09-30T05:05:37.108Z,1002.13
2016-09-30T05:06:37.146Z,1002.13
2016-09-30T05:07:37.153Z,1002.15
2016-09-30T05:08:37.180Z,1002.19
2016-09-30T05:09:37.197Z,1002.23
2016-09-30T05:10:37.222Z,1002.23
2016-09-30T05:11:37.244Z,1002.25
2016-09-30T05:12:37.271Z,1002.21
2016-09-30T05:13:37.289Z,1002.19
2016-09-30T05:14:37.314Z,1002.23
2016-09-30T05:15:37.337Z,1002.26
2016-09-30T05:16:37.361Z,1002.27
2016-09-30T05:17:37.384Z,1002.27
2016-09-30T05:18:37.406Z,1002.31
2016-09-30T05:19:37.429Z,1002.31
2016-09-30T05:20:37.462Z,1002.36
2016-09-30T05:21:37.476Z,1002.38
2016-09-30T05:22:37.499Z,1002.4
2016-09-30T05:23:37.521Z,1002.46
2016-09-30T05:24:37.553Z,1002.41
2016-09-30T05:25:37.574Z,1002.43
2016-09-30T05:26:37.602Z,1002.42
2016-09-30T05:27:37.615Z,1002.37
2016-09-30T05:28:37.639Z,1002.36
2016-09-30T05:29:37.659Z,1002.32
2016-09-30T05:30:37.703Z,1002.24
2016-09-30T05:31:37.704Z,1002.21
2016-09-30T05:32:37.724Z,1002.08
2016-09-30T05:33:37.751Z,1002.05
2016-09-30T05:34:37.770Z,1002.1
2016-09-30T05:35:37.796Z,1002.16
2016-09-30T05:36:37.823Z,1002.18
2016-09-30T05:37:37.838Z,1002.21
2016-09-30T05:38:37.866Z,1002.23
2016-09-30T05:39:37.885Z,1002.23
2016-09-30T05:40:37.907Z,1002.22
2016-09-30T05:41:37.935Z,1002.25
2016-09-30T05:42:37.957Z,1002.23
2016-09-30T05:43:38.054Z,1002.29
2016-09-30T05:44:38.068Z,1002.3
2016-09-30T05:45:38.025Z,1002.26
2016-09-30T05:46:38.048Z,1002.27
2016-09-30T05:47:38.071Z,1002.27
2016-09-30T05:48:38.089Z,1002.3
2016-09-30T05:49:38.116Z,1002.26
2016-09-30T05:50:38.139Z,1002.29
2016-09-30T05:51:38.166Z,1002.27
2016-09-30T05:52:38.184Z,1002.25
2016-09-30T05:53:38.208Z,1002.26
2016-09-30T05:54:38.229Z,1002.26
2016-09-30T05:55:38.254Z,1002.26
2016-09-30T05:56:38.273Z,1002.26
2016-09-30T05:57:38.295Z,1002.3
2016-09-30T05:58:38.321Z,1002.28
2016-09-30T05:59:38.343Z,1002.33
2016-09-30T06:00:38.366Z,1002.3
2016-09-30T06:01:38.387Z,1002.31
2016-09-30T06:02:38.493Z,1002.32
2016-09-30T06:03:38.432Z,1002.31
2016-09-30T06:04:38.455Z,1002.33
2016-09-30T06:05:38.482Z,1002.32
2016-09-30T06:06:38.503Z,1002.32
2016-09-30T06:07:38.522Z,1002.31
2016-09-30T06:08:38.547Z,1002.33
2016-09-30T06:09:38.568Z,1002.33
2016-09-30T06:10:38.593Z,1002.3
2016-09-30T06:11:38.614Z,1002.28
2016-09-30T06:12:38.637Z,1002.3
2016-09-30T06:13:38.660Z,1002.32
2016-09-30T06:14:38.686Z,1002.37
2016-09-30T06:15:38.708Z,1002.38
2016-09-30T06:16:38.810Z,1002.43
2016-09-30T06:17:38.750Z,1002.39
2016-09-30T06:18:38.776Z,1002.36
2016-09-30T06:19:38.799Z,1002.39
2016-09-30T06:20:38.831Z,1002.47
2016-09-30T06:21:38.845Z,1002.46
2016-09-30T06:22:38.867Z,1002.4
2016-09-30T06:23:38.888Z,1002.43
2016-09-30T06:24:38.913Z,1002.42
2016-09-30T06:25:38.931Z,1002.39
2016-09-30T06:26:38.954Z,1002.37
2016-09-30T06:27:38.984Z,1002.34
2016-09-30T06:28:39.003Z,1002.25
2016-09-30T06:29:39.028Z,1002.24
2016-09-30T06:30:39.050Z,1002.3
2016-09-30T06:31:39.073Z,1002.3
2016-09-30T06:32:39.093Z,1002.31
2016-09-30T06:33:39.120Z,1002.3
2016-09-30T06:34:39.139Z,1002.31
2016-09-30T06:35:39.160Z,1002.25
2016-09-30T06:36:39.186Z,1002.25
2016-09-30T06:37:39.208Z,1002.29
2016-09-30T06:38:39.233Z,1002.3
2016-09-30T06:39:39.255Z,1002.27
2016-09-30T06:40:39.273Z,1002.27
2016-09-30T06:41:39.300Z,1002.25
2016-09-30T06:42:39.324Z,1002.25
2016-09-30T06:43:39.397Z,1002.24
2016-09-30T06:44:39.366Z,1002.29
2016-09-30T06:45:39.387Z,1002.27
2016-09-30T06:46:39.416Z,1002.29
2016-09-30T06:47:39.436Z,1002.29
2016-09-30T06:48:39.457Z,1002.27
2016-09-30T06:49:39.481Z,1002.23
2016-09-30T06:50:39.501Z,1002.23
2016-09-30T06:51:39.532Z,1002.24
2016-09-30T06:52:39.551Z,1002.24
2016-09-30T06:53:39.573Z,1002.24
2016-09-30T06:54:39.596Z,1002.27
2016-09-30T06:55:39.618Z,1002.24
2016-09-30T06:56:39.638Z,1002.27
2016-09-30T06:57:39.664Z,1002.29
2016-09-30T06:58:39.680Z,1002.29
2016-09-30T06:59:39.712Z,1002.32
2016-09-30T07:00:39.731Z,1002.32
2016-09-30T07:01:39.753Z,1002.38
2016-09-30T07:02:39.778Z,1002.36
2016-09-30T07:03:39.800Z,1002.42
2016-09-30T07:04:39.819Z,1002.42
2016-09-30T07:05:39.846Z,1002.45
2016-09-30T07:06:39.867Z,1002.5
2016-09-30T07:07:39.972Z,1002.46
2016-09-30T07:08:39.978Z,1002.52
2016-09-30T07:09:39.932Z,1002.51
2016-09-30T07:10:39.957Z,1002.55
2016-09-30T07:11:39.976Z,1002.57
2016-09-30T07:12:39.999Z,1002.55
2016-09-30T07:13:40.024Z,1002.54
2016-09-30T07:14:40.047Z,1002.55
2016-09-30T07:15:40.071Z,1002.53
2016-09-30T07:16:40.090Z,1002.53
2016-09-30T07:17:40.114Z,1002.48
2016-09-30T07:18:40.140Z,1002.44
2016-09-30T07:19:40.161Z,1002.48
2016-09-30T07:20:40.184Z,1002.46
2016-09-30T07:21:40.205Z,1002.52
2016-09-30T07:22:40.227Z,1002.5
2016-09-30T07:23:40.246Z,1002.45
2016-09-30T07:24:40.273Z,1002.46
2016-09-30T07:25:40.295Z,1002.48
2016-09-30T07:26:40.320Z,1002.49
2016-09-30T07:27:40.340Z,1002.47
2016-09-30T07:28:40.362Z,1002.52
2016-09-30T07:29:40.389Z,1002.55
2016-09-30T07:30:40.409Z,1002.57
2016-09-30T07:31:40.433Z,1002.56
2016-09-30T07:32:40.457Z,1002.56
2016-09-30T07:33:40.476Z,1002.6
2016-09-30T07:34:40.498Z,1002.63
2016-09-30T07:35:40.519Z,1002.63
2016-09-30T07:36:40.542Z,1002.68
2016-09-30T07:37:40.590Z,1002.64
2016-09-30T07:38:40.602Z,1002.62
2016-09-30T07:39:40.611Z,1002.64
2016-09-30T07:40:40.638Z,1002.64
2016-09-30T07:41:40.657Z,1002.69
2016-09-30T07:42:40.680Z,1002.69
2016-09-30T07:43:40.709Z,1002.68
2016-09-30T07:44:40.726Z,1002.68
2016-09-30T07:45:40.750Z,1002.74
2016-09-30T07:46:40.770Z,1002.76
2016-09-30T07:47:40.792Z,1002.81
2016-09-30T07:48:40.815Z,1002.8
2016-09-30T07:49:40.840Z,1002.79
2016-09-30T07:50:40.875Z,1002.78
2016-09-30T07:51:40.884Z,1002.71
2016-09-30T07:52:40.904Z,1002.7
2016-09-30T07:53:40.932Z,1002.72
2016-09-30T07:54:40.952Z,1002.7
2016-09-30T07:55:40.972Z,1002.71
2016-09-30T07:56:40.997Z,1002.73
2016-09-30T07:57:41.023Z,1002.69
2016-09-30T07:58:41.045Z,1002.7
2016-09-30T07:59:41.069Z,1002.72
2016-09-30T08:00:41.090Z,1002.7
2016-09-30T08:01:41.116Z,1002.66
2016-09-30T08:02:41.134Z,1002.55
2016-09-30T08:03:41.154Z,1002.53
2016-09-30T08:04:41.176Z,1002.53
2016-09-30T08:05:41.203Z,1002.6
2016-09-30T08:06:41.228Z,1002.64
2016-09-30T08:07:41.248Z,1002.7
2016-09-30T08:08:41.269Z,1002.71
2016-09-30T08:09:41.296Z,1002.74
2016-09-30T08:10:41.315Z,1002.79
2016-09-30T08:11:41.340Z,1002.74
2016-09-30T08:12:41.362Z,1002.8
2016-09-30T08:13:41.383Z,1002.78
2016-09-30T08:14:41.409Z,1002.83
2016-09-30T08:15:41.433Z,1002.84
2016-09-30T08:16:41.453Z,1002.84
2016-09-30T08:17:41.479Z,1002.76
2016-09-30T08:18:41.496Z,1002.78
2016-09-30T08:19:41.521Z,1002.76
2016-09-30T08:20:41.547Z,1002.74
2016-09-30T08:21:41.569Z,1002.75
2016-09-30T08:22:41.593Z,1002.71
2016-09-30T08:23:41.614Z,1002.67
2016-09-30T08:24:41.637Z,1002.63
2016-09-30T08:25:41.659Z,1002.66
2016-09-30T08:26:41.682Z,1002.66
2016-09-30T08:27:41.705Z,1002.63
2016-09-30T08:28:41.727Z,1002.62
2016-09-30T08:29:41.746Z,1002.66
2016-09-30T08:30:41.770Z,1002.67
2016-09-30T08:31:41.793Z,1002.66
2016-09-30T08:32:41.820Z,1002.66
2016-09-30T08:33:41.844Z,1002.71
2016-09-30T08:34:41.865Z,1002.71
2016-09-30T08:35:41.885Z,1002.74
2016-09-30T08:36:41.909Z,1002.74
2016-09-30T08:37:41.936Z,1002.76
2016-09-30T08:38:41.957Z,1002.74
2016-09-30T08:39:41.982Z,1002.72
2016-09-30T08:40:42.005Z,1002.73
2016-09-30T08:41:42.024Z,1002.72
2016-09-30T08:42:42.049Z,1002.73
2016-09-30T08:43:42.071Z,1002.69
2016-09-30T08:44:42.094Z,1002.67
2016-09-30T08:45:42.117Z,1002.64
2016-09-30T08:46:42.190Z,1002.66
2016-09-30T08:47:42.159Z,1002.62
2016-09-30T08:48:42.185Z,1002.59
2016-09-30T08:49:42.206Z,1002.6
2016-09-30T08:50:42.232Z,1002.62
2016-09-30T08:51:42.257Z,1002.57
2016-09-30T08:52:42.275Z,1002.57
2016-09-30T08:53:42.297Z,1002.55
2016-09-30T08:54:42.323Z,1002.57
2016-09-30T08:55:42.348Z,1002.6
2016-09-30T08:56:42.369Z,1002.61
2016-09-30T08:57:42.391Z,1002.61
2016-09-30T08:58:42.418Z,1002.59
2016-09-30T08:59:42.434Z,1002.58
2016-09-30T09:00:42.461Z,1002.58
2016-09-30T09:01:42.485Z,1002.58
2016-09-30T09:02:42.507Z,1002.65
2016-09-30T09:03:42.532Z,1002.64
2016-09-30T09:04:42.554Z,1002.65
2016-09-30T09:05:42.575Z,1002.64
2016-09-30T09:06:42.596Z,1002.64
2016-09-30T09:07:42.623Z,1002.59
2016-09-30T09:08:42.647Z,1002.57
2016-09-30T09:09:42.666Z,1002.52
2016-09-30T09:10:42.694Z,1002.55
2016-09-30T09:11:42.713Z,1002.59
2016-09-30T09:12:42.739Z,1002.57
2016-09-30T09:13:42.757Z,1002.61
2016-09-30T09:14:42.785Z,1002.6
2016-09-30T09:15:42.811Z,1002.59
2016-09-30T09:16:42.827Z,1002.63
2016-09-30T09:17:42.850Z,1002.63
2016-09-30T09:18:42.876Z,1002.6
2016-09-30T09:19:42.908Z,1002.64
2016-09-30T09:20:42.920Z,1002.67
2016-09-30T09:21:42.949Z,1002.68
2016-09-30T09:22:42.974Z,1002.67
2016-09-30T09:23:42.994Z,1002.7
2016-09-30T09:24:43.017Z,1002.7
2016-09-30T09:25:43.039Z,1002.66
2016-09-30T09:26:43.064Z,1002.64
2016-09-30T09:27:43.085Z,1002.64
2016-09-30T09:28:43.109Z,1002.61
2016-09-30T09:29:43.136Z,1002.62
2016-09-30T09:30:43.154Z,1002.63
2016-09-30T09:31:43.176Z,1002.63
2016-09-30T09:32:43.199Z,1002.67
2016-09-30T09:33:43.227Z,1002.67
2016-09-30T09:34:43.246Z,1002.67
2016-09-30T09:35:43.273Z,1002.7
2016-09-30T09:36:43.295Z,1002.65
2016-09-30T09:37:43.317Z,1002.64
2016-09-30T09:38:43.344Z,1002.67
2016-09-30T09:39:43.484Z,1002.65
2016-09-30T09:40:43.386Z,1002.63
2016-09-30T09:41:43.416Z,1002.69
2016-09-30T09:42:43.659Z,1002.71
2016-09-30T09:43:43.460Z,1002.7
2016-09-30T09:44:43.481Z,1002.7
2016-09-30T09:45:43.507Z,1002.71
2016-09-30T09:46:43.527Z,1002.66
2016-09-30T09:47:43.554Z,1002.67
2016-09-30T09:48:43.577Z,1002.69
2016-09-30T09:49:43.597Z,1002.67
2016-09-30T09:50:43.621Z,1002.7
2016-09-30T09:51:43.644Z,1002.71
2016-09-30T09:52:43.667Z,1002.69
2016-09-30T09:53:43.695Z,1002.72
2016-09-30T09:54:43.719Z,1002.74
2016-09-30T09:55:43.738Z,1002.72
2016-09-30T09:56:43.765Z,1002.76
2016-09-30T09:57:43.785Z,1002.84
2016-09-30T09:58:43.812Z,1002.79
2016-09-30T09:59:43.836Z,1002.81
2016-09-30T10:00:43.858Z,1002.78
2016-09-30T10:01:43.878Z,1002.76
2016-09-30T10:02:43.903Z,1002.75
2016-09-30T10:03:43.933Z,1002.78
2016-09-30T10:04:43.949Z,1002.78
2016-09-30T10:05:43.976Z,1002.76
2016-09-30T10:06:44.003Z,1002.76
2016-09-30T10:07:44.021Z,1002.73
2016-09-30T10:08:44.042Z,1002.75
2016-09-30T10:09:44.067Z,1002.82
2016-09-30T10:10:44.091Z,1002.82
2016-09-30T10:11:44.116Z,1002.88
2016-09-30T10:12:44.143Z,1002.87
2016-09-30T10:13:44.166Z,1002.83
2016-09-30T10:14:44.188Z,1002.8
2016-09-30T10:15:44.210Z,1002.83
2016-09-30T10:16:44.239Z,1002.82
2016-09-30T10:17:44.260Z,1002.83
2016-09-30T10:18:44.280Z,1002.85
2016-09-30T10:19:44.306Z,1002.84
2016-09-30T10:20:44.326Z,1002.82
2016-09-30T10:21:44.353Z,1002.77
2016-09-30T10:22:44.377Z,1002.77
2016-09-30T10:23:44.400Z,1002.77
2016-09-30T10:24:44.423Z,1002.77
2016-09-30T10:25:44.445Z,1002.74
2016-09-30T10:26:44.473Z,1002.78
2016-09-30T10:27:44.497Z,1002.72
2016-09-30T10:28:44.522Z,1002.77
2016-09-30T10:29:44.540Z,1002.88
2016-09-30T10:30:44.569Z,1002.87
2016-09-30T10:31:44.589Z,1002.81
2016-09-30T10:32:44.615Z,1002.86
2016-09-30T10:33:44.636Z,1002.75
2016-09-30T10:34:44.663Z,1002.79
2016-09-30T10:35:44.689Z,1002.69
2016-09-30T10:36:44.708Z,1002.67
2016-09-30T10:37:44.741Z,1002.68
2016-09-30T10:38:44.762Z,1002.71
2016-09-30T10:39:44.778Z,1002.65
2016-09-30T10:40:44.802Z,1002.64
2016-09-30T10:41:44.826Z,1002.66
2016-09-30T10:42:44.855Z,1002.69
2016-09-30T10:43:44.879Z,1002.71
2016-09-30T10:44:44.898Z,1002.7
2016-09-30T10:45:44.922Z,1002.75
2016-09-30T10:46:44.948Z,1002.73
2016-09-30T10:47:44.978Z,1002.67
2016-09-30T10:48:44.998Z,1002.66
2016-09-30T10:49:45.022Z,1002.73
2016-09-30T10:50:45.055Z,1002.69
2016-09-30T10:51:45.071Z,1002.64
2016-09-30T10:52:45.095Z,1002.66
2016-09-30T10:53:45.118Z,1002.68
2016-09-30T10:54:45.140Z,1002.66
2016-09-30T10:55:45.163Z,1002.67
2016-09-30T10:56:45.191Z,1002.66
2016-09-30T10:57:45.213Z,1002.67
2016-09-30T10:58:45.236Z,1002.68
2016-09-30T10:59:45.259Z,1002.65
2016-09-30T11:00:45.287Z,1002.62
2016-09-30T11:01:45.312Z,1002.64
2016-09-30T11:02:45.339Z,1002.68
2016-09-30T11:03:45.362Z,1002.63
2016-09-30T11:04:45.387Z,1002.64
2016-09-30T11:05:45.412Z,1002.62
2016-09-30T11:06:45.429Z,1002.61
2016-09-30T11:07:45.452Z,1002.66
2016-09-30T11:08:45.480Z,1002.69
2016-09-30T11:09:45.502Z,1002.67
2016-09-30T11:10:45.529Z,1002.72
2016-09-30T11:11:45.553Z,1002.78
2016-09-30T11:12:45.576Z,1002.7
2016-09-30T11:13:45.601Z,1002.7
2016-09-30T11:15:45.650Z,1002.73
2016-09-30T11:16:45.675Z,1002.74
2016-09-30T11:17:45.694Z,1002.69
2016-09-30T11:18:45.719Z,1002.71
2016-09-30T11:19:45.743Z,1002.76
2016-09-30T11:20:45.772Z,1002.78
2016-09-30T11:21:45.792Z,1002.78
2016-09-30T11:22:45.819Z,1002.73
2016-09-30T11:23:45.841Z,1002.76
2016-09-30T11:24:45.878Z,1002.75
2016-09-30T11:25:45.892Z,1002.76
2016-09-30T11:26:45.917Z,1002.72
2016-09-30T11:27:45.938Z,1002.77
2016-09-30T11:28:45.962Z,1002.76
2016-09-30T11:29:45.989Z,1002.74
2016-09-30T11:30:46.011Z,1002.74
2016-09-30T11:31:46.035Z,1002.77
2016-09-30T11:32:46.058Z,1002.74
2016-09-30T11:33:46.081Z,1002.69
2016-09-30T11:34:46.107Z,1002.71
2016-09-30T11:35:46.135Z,1002.69
2016-09-30T11:36:46.160Z,1002.69
2016-09-30T11:37:46.183Z,1002.68
2016-09-30T11:38:46.203Z,1002.65
2016-09-30T11:39:46.231Z,1002.67
2016-09-30T11:40:46.261Z,1002.61
2016-09-30T11:41:46.279Z,1002.62
2016-09-30T11:42:46.303Z,1002.64
2016-09-30T11:43:46.326Z,1002.68
2016-09-30T11:44:46.351Z,1002.64
2016-09-30T11:45:46.372Z,1002.68
2016-09-30T11:46:46.405Z,1002.68
2016-09-30T11:47:46.424Z,1002.71
2016-09-30T11:48:46.447Z,1002.62
2016-09-30T11:49:46.470Z,1002.57
2016-09-30T11:50:46.499Z,1002.55
2016-09-30T11:51:46.523Z,1002.52
2016-09-30T11:52:46.547Z,1002.58
2016-09-30T11:53:46.575Z,1002.46
2016-09-30T11:54:46.595Z,1002.44
2016-09-30T11:55:46.616Z,1002.47
2016-09-30T11:56:46.645Z,1002.44
2016-09-30T11:57:46.669Z,1002.43
2016-09-30T11:58:46.693Z,1002.48
2016-09-30T11:59:46.714Z,1002.44
2016-09-30T12:00:46.742Z,1002.46
2016-09-30T12:01:46.768Z,1002.46
2016-09-30T12:02:46.788Z,1002.44
2016-09-30T12:03:46.813Z,1002.45
2016-09-30T12:04:46.838Z,1002.44
2016-09-30T12:05:46.861Z,1002.41
2016-09-30T12:06:46.885Z,1002.38
2016-09-30T12:07:46.906Z,1002.39
2016-09-30T12:08:46.933Z,1002.31